sensor_id;sensor_type;location;lat;lon;timestamp;temperature;humidity
8643;DHT22;4359;49.358;11.256;2023-04-30T00:01:43;9.80;99.90
8643;DHT22;4359;49.358;11.256;2023-04-30T00:04:09;9.80;99.90
8643;DHT22;4359;49.358;11.256;2023-04-30T00:06:35;9.80;99.90
8643;DHT22;4359;49.358;11.256;2023-04-30T00:09:00;9.80;99.90
8643;DHT22;4359;49.358;11.256;2023-04-30T00:11:26;9.80;99.90
8643;DHT22;4359;49.358;11.256;2023-04-30T00:13:52;9.80;99.90
8643;DHT22;4359;49.358;11.256;2023-04-30T00:16:18;9.80;99.90
8643;DHT22;4359;49.358;11.256;2023-04-30T00:18:44;9.80;99.90
8643;DHT22;4359;49.358;11.256;2023-04-30T00:21:10;9.80;99.90
8643;DHT22;4359;49.358;11.256;2023-04-30T00:23:35;9.70;99.90
8643;DHT22;4359;49.358;11.256;2023-04-30T00:26:01;9.70;99.90
8643;DHT22;4359;49.358;11.256;2023-04-30T00:28:27;9.60;99.90
8643;DHT22;4359;49.358;11.256;2023-04-30T00:30:52;9.60;99.90
8643;DHT22;4359;49.358;11.256;2023-04-30T00:33:18;9.60;99.90
8643;DHT22;4359;49.358;11.256;2023-04-30T00:35:44;9.60;99.90
8643;DHT22;4359;49.358;11.256;2023-04-30T00:38:10;9.60;99.90
8643;DHT22;4359;49.358;11.256;2023-04-30T00:40:36;9.60;99.90
8643;DHT22;4359;49.358;11.256;2023-04-30T00:43:03;9.60;99.90
8643;DHT22;4359;49.358;11.256;2023-04-30T00:45:28;9.60;99.90
8643;DHT22;4359;49.358;11.256;2023-04-30T00:47:55;9.50;99.90
8643;DHT22;4359;49.358;11.256;2023-04-30T00:50:21;9.50;99.90
8643;DHT22;4359;49.358;11.256;2023-04-30T00:52:47;9.40;99.90
8643;DHT22;4359;49.358;11.256;2023-04-30T00:55:13;9.40;99.90
8643;DHT22;4359;49.358;11.256;2023-04-30T00:57:39;9.30;99.90
8643;DHT22;4359;49.358;11.256;2023-04-30T01:00:06;9.30;99.90
8643;DHT22;4359;49.358;11.256;2023-04-30T01:02:35;9.30;99.90
8643;DHT22;4359;49.358;11.256;2023-04-30T01:05:02;9.30;99.90
8643;DHT22;4359;49.358;11.256;2023-04-30T01:07:28;9.30;99.90
8643;DHT22;4359;49.358;11.256;2023-04-30T01:09:54;9.20;99.90
8643;DHT22;4359;49.358;11.256;2023-04-30T01:12:28;9.20;99.90
8643;DHT22;4359;49.358;11.256;2023-04-30T01:15:13;9.20;99.90
8643;DHT22;4359;49.358;11.256;2023-04-30T01:18:03;9.20;99.90
8643;DHT22;4359;49.358;11.256;2023-04-30T01:20:31;9.20;99.90
8643;DHT22;4359;49.358;11.256;2023-04-30T01:28:15;9.10;99.90
8643;DHT22;4359;49.358;11.256;2023-04-30T01:30:42;9.00;99.90
8643;DHT22;4359;49.358;11.256;2023-04-30T01:33:11;9.00;99.90
8643;DHT22;4359;49.358;11.256;2023-04-30T01:41:32;8.90;99.90
8643;DHT22;4359;49.358;11.256;2023-04-30T01:44:10;8.90;99.90
8643;DHT22;4359;49.358;11.256;2023-04-30T01:46:38;8.90;99.90
8643;DHT22;4359;49.358;11.256;2023-04-30T01:54:56;9.00;99.90
8643;DHT22;4359;49.358;11.256;2023-04-30T01:57:28;8.90;99.90
8643;DHT22;4359;49.358;11.256;2023-04-30T01:59:56;9.00;99.90
8643;DHT22;4359;49.358;11.256;2023-04-30T02:02:21;9.00;99.90
8643;DHT22;4359;49.358;11.256;2023-04-30T02:04:47;8.90;99.90
8643;DHT22;4359;49.358;11.256;2023-04-30T02:07:19;9.00;99.90
8643;DHT22;4359;49.358;11.256;2023-04-30T02:09:51;9.00;99.90
8643;DHT22;4359;49.358;11.256;2023-04-30T02:12:17;9.00;99.90
8643;DHT22;4359;49.358;11.256;2023-04-30T02:14:42;9.00;99.90
8643;DHT22;4359;49.358;11.256;2023-04-30T02:17:08;8.90;99.90
8643;DHT22;4359;49.358;11.256;2023-04-30T02:19:34;8.90;99.90
8643;DHT22;4359;49.358;11.256;2023-04-30T02:22:00;9.00;99.90
8643;DHT22;4359;49.358;11.256;2023-04-30T02:24:25;8.90;99.90
8643;DHT22;4359;49.358;11.256;2023-04-30T02:26:51;8.90;99.90
8643;DHT22;4359;49.358;11.256;2023-04-30T02:29:16;8.80;99.90
8643;DHT22;4359;49.358;11.256;2023-04-30T02:31:42;8.80;99.90
8643;DHT22;4359;49.358;11.256;2023-04-30T02:34:08;8.70;99.90
8643;DHT22;4359;49.358;11.256;2023-04-30T02:36:34;8.70;99.90
8643;DHT22;4359;49.358;11.256;2023-04-30T02:39:01;8.70;99.90
8643;DHT22;4359;49.358;11.256;2023-04-30T02:41:26;8.60;99.90
8643;DHT22;4359;49.358;11.256;2023-04-30T02:43:52;8.60;99.90
8643;DHT22;4359;49.358;11.256;2023-04-30T02:46:18;8.50;99.90
8643;DHT22;4359;49.358;11.256;2023-04-30T02:48:43;8.50;99.90
8643;DHT22;4359;49.358;11.256;2023-04-30T02:51:09;8.50;99.90
8643;DHT22;4359;49.358;11.256;2023-04-30T02:53:35;8.50;99.90
8643;DHT22;4359;49.358;11.256;2023-04-30T02:56:00;8.50;99.90
8643;DHT22;4359;49.358;11.256;2023-04-30T02:58:26;8.40;99.90
8643;DHT22;4359;49.358;11.256;2023-04-30T03:00:51;8.40;99.90
8643;DHT22;4359;49.358;11.256;2023-04-30T03:03:17;8.40;99.90
8643;DHT22;4359;49.358;11.256;2023-04-30T03:05:42;8.40;99.90
8643;DHT22;4359;49.358;11.256;2023-04-30T03:08:08;8.40;99.90
8643;DHT22;4359;49.358;11.256;2023-04-30T03:10:34;8.30;99.90
8643;DHT22;4359;49.358;11.256;2023-04-30T03:12:59;8.40;99.90
8643;DHT22;4359;49.358;11.256;2023-04-30T03:15:25;8.40;99.90
8643;DHT22;4359;49.358;11.256;2023-04-30T03:17:51;8.30;99.90
8643;DHT22;4359;49.358;11.256;2023-04-30T03:20:16;8.30;99.90
8643;DHT22;4359;49.358;11.256;2023-04-30T03:22:42;8.30;99.90
8643;DHT22;4359;49.358;11.256;2023-04-30T03:25:08;8.30;99.90
8643;DHT22;4359;49.358;11.256;2023-04-30T03:27:34;8.20;99.90
8643;DHT22;4359;49.358;11.256;2023-04-30T03:30:00;8.20;99.90
8643;DHT22;4359;49.358;11.256;2023-04-30T03:32:26;8.20;99.90
8643;DHT22;4359;49.358;11.256;2023-04-30T03:34:51;8.20;99.90
8643;DHT22;4359;49.358;11.256;2023-04-30T03:37:17;8.20;99.90
8643;DHT22;4359;49.358;11.256;2023-04-30T03:39:42;8.20;99.90
8643;DHT22;4359;49.358;11.256;2023-04-30T03:42:08;8.20;99.90
8643;DHT22;4359;49.358;11.256;2023-04-30T03:44:34;8.20;99.90
8643;DHT22;4359;49.358;11.256;2023-04-30T03:47:00;8.20;99.90
8643;DHT22;4359;49.358;11.256;2023-04-30T03:49:25;8.20;99.90
8643;DHT22;4359;49.358;11.256;2023-04-30T03:51:51;8.20;99.90
8643;DHT22;4359;49.358;11.256;2023-04-30T03:54:17;8.20;99.90
8643;DHT22;4359;49.358;11.256;2023-04-30T03:56:42;8.20;99.90
8643;DHT22;4359;49.358;11.256;2023-04-30T03:59:08;8.20;99.90
8643;DHT22;4359;49.358;11.256;2023-04-30T04:01:34;8.20;99.90
8643;DHT22;4359;49.358;11.256;2023-04-30T04:04:00;8.20;99.90
8643;DHT22;4359;49.358;11.256;2023-04-30T04:06:26;8.20;99.90
8643;DHT22;4359;49.358;11.256;2023-04-30T04:08:52;8.20;99.90
8643;DHT22;4359;49.358;11.256;2023-04-30T04:11:17;8.20;99.90
8643;DHT22;4359;49.358;11.256;2023-04-30T04:13:43;8.10;99.90
8643;DHT22;4359;49.358;11.256;2023-04-30T04:16:09;8.10;99.90
8643;DHT22;4359;49.358;11.256;2023-04-30T04:18:35;8.10;99.90
8643;DHT22;4359;49.358;11.256;2023-04-30T04:21:01;8.10;99.90
8643;DHT22;4359;49.358;11.256;2023-04-30T04:23:26;8.10;99.90
8643;DHT22;4359;49.358;11.256;2023-04-30T04:25:52;8.00;99.90
8643;DHT22;4359;49.358;11.256;2023-04-30T04:28:18;8.00;99.90
8643;DHT22;4359;49.358;11.256;2023-04-30T04:30:44;8.00;99.90
8643;DHT22;4359;49.358;11.256;2023-04-30T04:33:10;8.00;99.90
8643;DHT22;4359;49.358;11.256;2023-04-30T04:35:36;8.00;99.90
8643;DHT22;4359;49.358;11.256;2023-04-30T04:38:02;8.10;99.90
8643;DHT22;4359;49.358;11.256;2023-04-30T04:40:27;8.10;99.90
8643;DHT22;4359;49.358;11.256;2023-04-30T04:42:53;8.10;99.90
8643;DHT22;4359;49.358;11.256;2023-04-30T04:45:20;8.10;99.90
8643;DHT22;4359;49.358;11.256;2023-04-30T04:47:46;8.20;99.90
8643;DHT22;4359;49.358;11.256;2023-04-30T04:50:12;8.30;99.90
8643;DHT22;4359;49.358;11.256;2023-04-30T04:52:38;8.30;99.90
8643;DHT22;4359;49.358;11.256;2023-04-30T04:55:05;8.40;99.90
8643;DHT22;4359;49.358;11.256;2023-04-30T04:57:31;8.50;99.90
8643;DHT22;4359;49.358;11.256;2023-04-30T04:59:57;8.60;99.90
8643;DHT22;4359;49.358;11.256;2023-04-30T05:02:22;8.70;99.90
8643;DHT22;4359;49.358;11.256;2023-04-30T05:04:48;8.80;99.90
8643;DHT22;4359;49.358;11.256;2023-04-30T05:07:17;8.80;99.90
8643;DHT22;4359;49.358;11.256;2023-04-30T05:09:46;9.00;99.90
8643;DHT22;4359;49.358;11.256;2023-04-30T05:12:12;9.00;99.90
8643;DHT22;4359;49.358;11.256;2023-04-30T05:14:38;9.20;99.90
8643;DHT22;4359;49.358;11.256;2023-04-30T05:17:04;9.40;99.90
8643;DHT22;4359;49.358;11.256;2023-04-30T05:19:31;9.60;99.90
8643;DHT22;4359;49.358;11.256;2023-04-30T05:21:57;9.80;99.90
8643;DHT22;4359;49.358;11.256;2023-04-30T05:24:23;9.90;99.90
8643;DHT22;4359;49.358;11.256;2023-04-30T05:26:49;10.10;99.90
8643;DHT22;4359;49.358;11.256;2023-04-30T05:29:17;10.20;99.90
8643;DHT22;4359;49.358;11.256;2023-04-30T05:31:42;10.40;99.90
8643;DHT22;4359;49.358;11.256;2023-04-30T05:34:08;10.40;99.90
8643;DHT22;4359;49.358;11.256;2023-04-30T05:36:34;10.50;99.90
8643;DHT22;4359;49.358;11.256;2023-04-30T05:38:59;10.60;99.90
8643;DHT22;4359;49.358;11.256;2023-04-30T05:41:25;10.70;99.90
8643;DHT22;4359;49.358;11.256;2023-04-30T05:43:51;10.90;99.90
8643;DHT22;4359;49.358;11.256;2023-04-30T05:46:16;11.10;99.90
8643;DHT22;4359;49.358;11.256;2023-04-30T05:48:42;11.30;99.90
8643;DHT22;4359;49.358;11.256;2023-04-30T05:51:07;11.50;99.90
8643;DHT22;4359;49.358;11.256;2023-04-30T05:53:35;11.90;99.90
8643;DHT22;4359;49.358;11.256;2023-04-30T05:56:00;12.20;99.90
8643;DHT22;4359;49.358;11.256;2023-04-30T05:58:26;12.10;99.90
8643;DHT22;4359;49.358;11.256;2023-04-30T06:00:52;11.90;99.90
8643;DHT22;4359;49.358;11.256;2023-04-30T06:03:18;12.00;99.90
8643;DHT22;4359;49.358;11.256;2023-04-30T06:05:45;12.10;99.90
8643;DHT22;4359;49.358;11.256;2023-04-30T06:08:11;12.00;99.90
8643;DHT22;4359;49.358;11.256;2023-04-30T06:10:37;12.00;99.90
8643;DHT22;4359;49.358;11.256;2023-04-30T06:13:03;12.20;99.90
8643;DHT22;4359;49.358;11.256;2023-04-30T06:15:29;12.50;99.90
8643;DHT22;4359;49.358;11.256;2023-04-30T06:17:54;13.00;99.90
8643;DHT22;4359;49.358;11.256;2023-04-30T06:20:20;13.00;99.90
8643;DHT22;4359;49.358;11.256;2023-04-30T06:22:46;13.00;99.90
8643;DHT22;4359;49.358;11.256;2023-04-30T06:25:11;13.20;99.90
8643;DHT22;4359;49.358;11.256;2023-04-30T06:27:37;13.50;99.90
8643;DHT22;4359;49.358;11.256;2023-04-30T06:30:03;13.50;99.90
8643;DHT22;4359;49.358;11.256;2023-04-30T06:32:29;13.40;99.90
8643;DHT22;4359;49.358;11.256;2023-04-30T06:34:56;13.20;99.90
8643;DHT22;4359;49.358;11.256;2023-04-30T06:37:22;12.90;99.90
8643;DHT22;4359;49.358;11.256;2023-04-30T06:39:48;13.00;99.90
8643;DHT22;4359;49.358;11.256;2023-04-30T06:42:14;13.20;99.90
8643;DHT22;4359;49.358;11.256;2023-04-30T06:44:39;13.50;99.90
8643;DHT22;4359;49.358;11.256;2023-04-30T06:47:05;13.80;99.90
8643;DHT22;4359;49.358;11.256;2023-04-30T06:49:30;13.80;99.90
8643;DHT22;4359;49.358;11.256;2023-04-30T06:51:56;13.80;99.90
8643;DHT22;4359;49.358;11.256;2023-04-30T06:54:23;13.60;99.90
8643;DHT22;4359;49.358;11.256;2023-04-30T06:56:51;13.60;99.90
8643;DHT22;4359;49.358;11.256;2023-04-30T06:59:16;13.40;99.90
8643;DHT22;4359;49.358;11.256;2023-04-30T07:01:42;13.50;99.90
8643;DHT22;4359;49.358;11.256;2023-04-30T07:04:08;13.70;99.90
8643;DHT22;4359;49.358;11.256;2023-04-30T07:06:33;14.20;99.90
8643;DHT22;4359;49.358;11.256;2023-04-30T07:08:59;14.00;99.90
8643;DHT22;4359;49.358;11.256;2023-04-30T07:11:25;14.00;99.90
8643;DHT22;4359;49.358;11.256;2023-04-30T07:13:51;13.90;99.90
8643;DHT22;4359;49.358;11.256;2023-04-30T07:16:17;13.80;99.90
8643;DHT22;4359;49.358;11.256;2023-04-30T07:18:43;14.20;99.90
8643;DHT22;4359;49.358;11.256;2023-04-30T07:21:09;14.50;99.90
8643;DHT22;4359;49.358;11.256;2023-04-30T07:23:34;14.80;99.90
8643;DHT22;4359;49.358;11.256;2023-04-30T07:26:00;14.90;99.90
8643;DHT22;4359;49.358;11.256;2023-04-30T07:28:26;14.70;99.90
8643;DHT22;4359;49.358;11.256;2023-04-30T07:30:51;15.10;99.90
8643;DHT22;4359;49.358;11.256;2023-04-30T07:33:17;15.30;99.90
8643;DHT22;4359;49.358;11.256;2023-04-30T07:35:43;15.20;99.90
8643;DHT22;4359;49.358;11.256;2023-04-30T07:38:09;14.90;99.90
8643;DHT22;4359;49.358;11.256;2023-04-30T07:40:34;15.10;99.90
8643;DHT22;4359;49.358;11.256;2023-04-30T07:43:00;15.20;99.90
8643;DHT22;4359;49.358;11.256;2023-04-30T07:45:26;15.20;99.90
8643;DHT22;4359;49.358;11.256;2023-04-30T07:47:51;15.00;99.90
8643;DHT22;4359;49.358;11.256;2023-04-30T07:50:17;14.80;99.90
8643;DHT22;4359;49.358;11.256;2023-04-30T07:52:43;14.90;99.90
8643;DHT22;4359;49.358;11.256;2023-04-30T07:55:08;14.90;99.90
8643;DHT22;4359;49.358;11.256;2023-04-30T07:57:34;15.30;99.90
8643;DHT22;4359;49.358;11.256;2023-04-30T08:00:00;15.30;99.90
8643;DHT22;4359;49.358;11.256;2023-04-30T08:02:26;15.60;99.90
8643;DHT22;4359;49.358;11.256;2023-04-30T08:04:51;15.60;99.90
8643;DHT22;4359;49.358;11.256;2023-04-30T08:07:17;15.40;99.90
8643;DHT22;4359;49.358;11.256;2023-04-30T08:09:43;15.30;99.90
8643;DHT22;4359;49.358;11.256;2023-04-30T08:12:08;15.20;99.90
8643;DHT22;4359;49.358;11.256;2023-04-30T08:14:34;15.10;99.90
8643;DHT22;4359;49.358;11.256;2023-04-30T08:17:00;15.00;99.90
8643;DHT22;4359;49.358;11.256;2023-04-30T08:19:27;15.20;99.90
8643;DHT22;4359;49.358;11.256;2023-04-30T08:21:53;15.80;99.90
8643;DHT22;4359;49.358;11.256;2023-04-30T08:24:19;15.70;99.90
8643;DHT22;4359;49.358;11.256;2023-04-30T08:26:45;15.50;99.90
8643;DHT22;4359;49.358;11.256;2023-04-30T08:29:10;15.60;99.90
8643;DHT22;4359;49.358;11.256;2023-04-30T08:31:36;16.10;99.90
8643;DHT22;4359;49.358;11.256;2023-04-30T08:34:02;16.40;99.90
8643;DHT22;4359;49.358;11.256;2023-04-30T08:36:27;15.70;99.90
8643;DHT22;4359;49.358;11.256;2023-04-30T08:38:53;16.00;99.90
8643;DHT22;4359;49.358;11.256;2023-04-30T08:41:23;16.20;99.90
8643;DHT22;4359;49.358;11.256;2023-04-30T08:43:51;15.50;99.90
8643;DHT22;4359;49.358;11.256;2023-04-30T08:46:19;15.30;99.90
8643;DHT22;4359;49.358;11.256;2023-04-30T08:48:45;15.70;99.90
8643;DHT22;4359;49.358;11.256;2023-04-30T08:51:12;15.60;99.90
8643;DHT22;4359;49.358;11.256;2023-04-30T08:53:39;16.00;99.90
8643;DHT22;4359;49.358;11.256;2023-04-30T08:56:09;16.80;99.90
8643;DHT22;4359;49.358;11.256;2023-04-30T08:58:34;17.20;99.90
8643;DHT22;4359;49.358;11.256;2023-04-30T09:01:01;17.10;99.90
8643;DHT22;4359;49.358;11.256;2023-04-30T09:03:27;17.20;99.90
8643;DHT22;4359;49.358;11.256;2023-04-30T09:05:54;17.20;99.90
8643;DHT22;4359;49.358;11.256;2023-04-30T09:08:46;17.50;99.90
8643;DHT22;4359;49.358;11.256;2023-04-30T09:11:38;17.70;99.90
8643;DHT22;4359;49.358;11.256;2023-04-30T09:14:04;18.40;99.90
8643;DHT22;4359;49.358;11.256;2023-04-30T09:16:46;18.70;99.90
8643;DHT22;4359;49.358;11.256;2023-04-30T09:19:22;19.30;99.90
8643;DHT22;4359;49.358;11.256;2023-04-30T09:21:48;19.40;99.90
8643;DHT22;4359;49.358;11.256;2023-04-30T09:24:14;19.10;99.90
8643;DHT22;4359;49.358;11.256;2023-04-30T09:26:40;18.90;99.90
8643;DHT22;4359;49.358;11.256;2023-04-30T09:29:05;18.60;99.90
8643;DHT22;4359;49.358;11.256;2023-04-30T09:31:39;18.70;99.90
8643;DHT22;4359;49.358;11.256;2023-04-30T09:34:05;18.90;99.20
8643;DHT22;4359;49.358;11.256;2023-04-30T09:36:31;18.20;98.90
8643;DHT22;4359;49.358;11.256;2023-04-30T09:39:10;17.30;99.90
8643;DHT22;4359;49.358;11.256;2023-04-30T09:41:38;16.90;99.90
8643;DHT22;4359;49.358;11.256;2023-04-30T09:44:04;16.50;99.90
8643;DHT22;4359;49.358;11.256;2023-04-30T09:46:34;16.60;99.90
8643;DHT22;4359;49.358;11.256;2023-04-30T09:49:04;16.80;99.90
8643;DHT22;4359;49.358;11.256;2023-04-30T09:51:30;17.50;99.90
8643;DHT22;4359;49.358;11.256;2023-04-30T09:53:57;18.30;99.90
8643;DHT22;4359;49.358;11.256;2023-04-30T09:56:25;18.40;99.90
8643;DHT22;4359;49.358;11.256;2023-04-30T09:58:53;18.20;99.90
8643;DHT22;4359;49.358;11.256;2023-04-30T10:01:25;17.60;99.90
8643;DHT22;4359;49.358;11.256;2023-04-30T10:03:52;17.50;99.90
8643;DHT22;4359;49.358;11.256;2023-04-30T10:06:20;17.80;99.90
8643;DHT22;4359;49.358;11.256;2023-04-30T10:08:47;18.10;99.90
8643;DHT22;4359;49.358;11.256;2023-04-30T10:11:20;18.20;99.90
8643;DHT22;4359;49.358;11.256;2023-04-30T10:19:06;18.80;99.70
8643;DHT22;4359;49.358;11.256;2023-04-30T10:21:34;18.40;99.30
8643;DHT22;4359;49.358;11.256;2023-04-30T10:24:03;18.40;99.90
8643;DHT22;4359;49.358;11.256;2023-04-30T10:26:29;18.50;99.90
8643;DHT22;4359;49.358;11.256;2023-04-30T10:28:55;18.60;99.90
8643;DHT22;4359;49.358;11.256;2023-04-30T10:31:23;18.70;99.90
8643;DHT22;4359;49.358;11.256;2023-04-30T10:39:06;16.80;99.90
8643;DHT22;4359;49.358;11.256;2023-04-30T10:41:32;17.10;99.90
8643;DHT22;4359;49.358;11.256;2023-04-30T10:44:00;17.90;99.90
8643;DHT22;4359;49.358;11.256;2023-04-30T10:46:27;18.70;99.90
8643;DHT22;4359;49.358;11.256;2023-04-30T10:48:56;19.40;99.50
8643;DHT22;4359;49.358;11.256;2023-04-30T10:51:22;20.00;98.90
8643;DHT22;4359;49.358;11.256;2023-04-30T10:53:53;20.40;98.10
8643;DHT22;4359;49.358;11.256;2023-04-30T10:56:30;20.40;99.30
8643;DHT22;4359;49.358;11.256;2023-04-30T10:58:59;19.80;98.00
8643;DHT22;4359;49.358;11.256;2023-04-30T11:01:27;19.20;99.80
8643;DHT22;4359;49.358;11.256;2023-04-30T11:04:09;18.60;99.70
8643;DHT22;4359;49.358;11.256;2023-04-30T11:07:01;18.00;99.90
8643;DHT22;4359;49.358;11.256;2023-04-30T11:09:41;17.80;99.90
8643;DHT22;4359;49.358;11.256;2023-04-30T11:12:12;17.90;99.90
8643;DHT22;4359;49.358;11.256;2023-04-30T11:14:43;18.00;99.90
8643;DHT22;4359;49.358;11.256;2023-04-30T11:17:21;18.40;99.90
8643;DHT22;4359;49.358;11.256;2023-04-30T11:19:51;19.20;99.90
8643;DHT22;4359;49.358;11.256;2023-04-30T11:22:23;19.10;99.60
8643;DHT22;4359;49.358;11.256;2023-04-30T11:27:33;18.50;98.90
8643;DHT22;4359;49.358;11.256;2023-04-30T11:30:00;18.50;99.80
8643;DHT22;4359;49.358;11.256;2023-04-30T11:32:31;18.80;99.90
8643;DHT22;4359;49.358;11.256;2023-04-30T11:35:02;19.40;99.90
8643;DHT22;4359;49.358;11.256;2023-04-30T11:37:48;19.20;98.60
8643;DHT22;4359;49.358;11.256;2023-04-30T11:40:19;18.10;98.80
8643;DHT22;4359;49.358;11.256;2023-04-30T11:42:46;18.00;98.90
8643;DHT22;4359;49.358;11.256;2023-04-30T11:45:16;18.80;99.90
8643;DHT22;4359;49.358;11.256;2023-04-30T11:47:42;19.80;98.10
8643;DHT22;4359;49.358;11.256;2023-04-30T11:50:10;19.10;98.10
8643;DHT22;4359;49.358;11.256;2023-04-30T11:52:37;18.30;98.30
8643;DHT22;4359;49.358;11.256;2023-04-30T11:55:12;17.90;99.00
8643;DHT22;4359;49.358;11.256;2023-04-30T11:57:39;17.80;99.90
8643;DHT22;4359;49.358;11.256;2023-04-30T12:00:10;18.20;99.90
8643;DHT22;4359;49.358;11.256;2023-04-30T12:02:37;19.00;99.90
8643;DHT22;4359;49.358;11.256;2023-04-30T12:05:05;19.50;98.30
8643;DHT22;4359;49.358;11.256;2023-04-30T12:07:31;19.40;98.70
8643;DHT22;4359;49.358;11.256;2023-04-30T12:09:58;19.50;99.00
8643;DHT22;4359;49.358;11.256;2023-04-30T12:12:29;19.40;98.00
8643;DHT22;4359;49.358;11.256;2023-04-30T12:14:55;19.20;98.50
8643;DHT22;4359;49.358;11.256;2023-04-30T12:17:34;19.20;98.30
8643;DHT22;4359;49.358;11.256;2023-04-30T12:20:00;18.90;97.90
8643;DHT22;4359;49.358;11.256;2023-04-30T12:22:26;18.50;98.70
8643;DHT22;4359;49.358;11.256;2023-04-30T12:24:54;18.20;98.10
8643;DHT22;4359;49.358;11.256;2023-04-30T12:27:21;18.10;99.40
8643;DHT22;4359;49.358;11.256;2023-04-30T12:29:47;18.20;99.50
8643;DHT22;4359;49.358;11.256;2023-04-30T12:32:16;18.10;99.80
8643;DHT22;4359;49.358;11.256;2023-04-30T12:34:46;18.30;99.20
8643;DHT22;4359;49.358;11.256;2023-04-30T12:37:15;19.20;99.00
8643;DHT22;4359;49.358;11.256;2023-04-30T12:39:42;19.40;98.60
8643;DHT22;4359;49.358;11.256;2023-04-30T12:42:08;19.30;98.20
8643;DHT22;4359;49.358;11.256;2023-04-30T12:44:42;18.90;98.00
8643;DHT22;4359;49.358;11.256;2023-04-30T12:47:11;18.80;99.00
8643;DHT22;4359;49.358;11.256;2023-04-30T12:49:38;19.70;97.40
8643;DHT22;4359;49.358;11.256;2023-04-30T12:52:05;20.40;97.60
8643;DHT22;4359;49.358;11.256;2023-04-30T12:54:33;21.00;96.90
8643;DHT22;4359;49.358;11.256;2023-04-30T12:57:07;21.30;96.80
8643;DHT22;4359;49.358;11.256;2023-04-30T12:59:37;21.90;97.90
8643;DHT22;4359;49.358;11.256;2023-04-30T13:04:33;22.50;95.60
8643;DHT22;4359;49.358;11.256;2023-04-30T13:06:58;22.80;97.60
8643;DHT22;4359;49.358;11.256;2023-04-30T13:09:24;23.00;95.00
8643;DHT22;4359;49.358;11.256;2023-04-30T13:11:50;22.00;93.00
8643;DHT22;4359;49.358;11.256;2023-04-30T13:14:16;20.40;94.40
8643;DHT22;4359;49.358;11.256;2023-04-30T13:16:42;19.40;96.00
8643;DHT22;4359;49.358;11.256;2023-04-30T13:19:08;18.90;96.90
8643;DHT22;4359;49.358;11.256;2023-04-30T13:21:34;18.70;97.20
8643;DHT22;4359;49.358;11.256;2023-04-30T13:24:00;18.40;97.00
8643;DHT22;4359;49.358;11.256;2023-04-30T13:26:26;18.10;97.70
8643;DHT22;4359;49.358;11.256;2023-04-30T13:28:52;18.30;97.90
8643;DHT22;4359;49.358;11.256;2023-04-30T13:31:19;19.20;96.50
8643;DHT22;4359;49.358;11.256;2023-04-30T13:33:44;20.20;96.00
8643;DHT22;4359;49.358;11.256;2023-04-30T13:36:10;20.60;94.70
8643;DHT22;4359;49.358;11.256;2023-04-30T13:38:36;20.70;94.90
8643;DHT22;4359;49.358;11.256;2023-04-30T13:41:04;20.80;94.90
8643;DHT22;4359;49.358;11.256;2023-04-30T13:43:29;20.80;94.00
8643;DHT22;4359;49.358;11.256;2023-04-30T13:45:56;20.80;94.30
8643;DHT22;4359;49.358;11.256;2023-04-30T13:48:23;21.00;93.70
8643;DHT22;4359;49.358;11.256;2023-04-30T13:50:50;21.30;93.70
8643;DHT22;4359;49.358;11.256;2023-04-30T13:53:16;21.60;93.40
8643;DHT22;4359;49.358;11.256;2023-04-30T13:55:42;22.00;92.00
8643;DHT22;4359;49.358;11.256;2023-04-30T13:58:07;21.60;92.90
8643;DHT22;4359;49.358;11.256;2023-04-30T14:00:33;22.30;92.80
8643;DHT22;4359;49.358;11.256;2023-04-30T14:02:59;23.00;92.70
8643;DHT22;4359;49.358;11.256;2023-04-30T14:05:24;23.00;90.60
8643;DHT22;4359;49.358;11.256;2023-04-30T14:07:50;22.30;91.10
8643;DHT22;4359;49.358;11.256;2023-04-30T14:10:16;21.30;91.60
8643;DHT22;4359;49.358;11.256;2023-04-30T14:12:41;19.70;92.20
8643;DHT22;4359;49.358;11.256;2023-04-30T14:18:29;19.00;93.40
8643;DHT22;4359;49.358;11.256;2023-04-30T14:20:55;18.60;93.50
8643;DHT22;4359;49.358;11.256;2023-04-30T14:23:20;18.50;94.00
8643;DHT22;4359;49.358;11.256;2023-04-30T14:25:46;18.50;94.90
8643;DHT22;4359;49.358;11.256;2023-04-30T14:28:12;19.60;94.50
8643;DHT22;4359;49.358;11.256;2023-04-30T14:57:28;21.80;92.10
8643;DHT22;4359;49.358;11.256;2023-04-30T14:59:54;22.90;90.90
8643;DHT22;4359;49.358;11.256;2023-04-30T15:02:22;23.30;90.10
8643;DHT22;4359;49.358;11.256;2023-04-30T15:04:47;22.90;90.60
8643;DHT22;4359;49.358;11.256;2023-04-30T15:07:13;23.10;90.00
8643;DHT22;4359;49.358;11.256;2023-04-30T15:09:39;22.90;90.50
8643;DHT22;4359;49.358;11.256;2023-04-30T15:12:05;22.40;89.20
8643;DHT22;4359;49.358;11.256;2023-04-30T15:14:30;21.90;92.60
8643;DHT22;4359;49.358;11.256;2023-04-30T15:16:56;22.30;90.90
8643;DHT22;4359;49.358;11.256;2023-04-30T15:19:22;22.90;91.20
8643;DHT22;4359;49.358;11.256;2023-04-30T15:21:48;22.50;90.10
8643;DHT22;4359;49.358;11.256;2023-04-30T15:24:14;21.30;91.60
8643;DHT22;4359;49.358;11.256;2023-04-30T15:26:40;20.40;92.00
8643;DHT22;4359;49.358;11.256;2023-04-30T15:29:06;19.50;92.70
8643;DHT22;4359;49.358;11.256;2023-04-30T15:31:33;18.70;92.70
8643;DHT22;4359;49.358;11.256;2023-04-30T15:33:59;18.30;93.10
8643;DHT22;4359;49.358;11.256;2023-04-30T15:36:25;18.00;93.30
8643;DHT22;4359;49.358;11.256;2023-04-30T15:38:51;17.70;93.40
8643;DHT22;4359;49.358;11.256;2023-04-30T15:41:17;17.60;94.10
8643;DHT22;4359;49.358;11.256;2023-04-30T15:43:43;17.70;94.20
8643;DHT22;4359;49.358;11.256;2023-04-30T15:46:08;17.80;94.60
8643;DHT22;4359;49.358;11.256;2023-04-30T15:48:34;17.90;94.10
8643;DHT22;4359;49.358;11.256;2023-04-30T15:54:22;18.30;94.40
8643;DHT22;4359;49.358;11.256;2023-04-30T15:56:48;18.20;93.20
8643;DHT22;4359;49.358;11.256;2023-04-30T15:59:13;18.00;93.80
8643;DHT22;4359;49.358;11.256;2023-04-30T16:01:41;18.00;93.90
8643;DHT22;4359;49.358;11.256;2023-04-30T16:04:08;18.10;94.10
8643;DHT22;4359;49.358;11.256;2023-04-30T16:06:34;18.00;93.80
8643;DHT22;4359;49.358;11.256;2023-04-30T16:09:00;17.90;94.10
8643;DHT22;4359;49.358;11.256;2023-04-30T16:11:31;17.90;94.00
8643;DHT22;4359;49.358;11.256;2023-04-30T16:13:57;17.90;94.20
8643;DHT22;4359;49.358;11.256;2023-04-30T16:16:23;17.90;94.30
8643;DHT22;4359;49.358;11.256;2023-04-30T16:18:48;17.90;94.20
8643;DHT22;4359;49.358;11.256;2023-04-30T16:21:15;17.90;94.20
8643;DHT22;4359;49.358;11.256;2023-04-30T16:23:41;17.80;93.50
8643;DHT22;4359;49.358;11.256;2023-04-30T16:26:07;17.80;94.10
8643;DHT22;4359;49.358;11.256;2023-04-30T16:28:34;17.80;94.30
8643;DHT22;4359;49.358;11.256;2023-04-30T16:30:59;17.70;94.20
8643;DHT22;4359;49.358;11.256;2023-04-30T16:33:25;17.60;94.20
8643;DHT22;4359;49.358;11.256;2023-04-30T16:35:51;17.60;94.30
8643;DHT22;4359;49.358;11.256;2023-04-30T16:38:16;17.70;94.70
8643;DHT22;4359;49.358;11.256;2023-04-30T16:40:42;17.80;94.60
8643;DHT22;4359;49.358;11.256;2023-04-30T16:43:08;17.80;95.10
8643;DHT22;4359;49.358;11.256;2023-04-30T16:45:34;17.90;94.30
8643;DHT22;4359;49.358;11.256;2023-04-30T16:48:00;18.00;94.00
8643;DHT22;4359;49.358;11.256;2023-04-30T16:50:25;18.00;93.60
8643;DHT22;4359;49.358;11.256;2023-04-30T16:52:52;18.00;94.40
8643;DHT22;4359;49.358;11.256;2023-04-30T16:55:18;17.90;93.80
8643;DHT22;4359;49.358;11.256;2023-04-30T16:57:44;17.80;93.80